Time;durP1;ratioP1;P1;durP2;ratioP2;P2;SDS_P1;SDS_P2;PMS_P1;PMS_P2;Temp;Humidity;BMP_temperature;BMP_pressure;BME280_temperature;BME280_humidity;BME280_pressure;Samples;Min_cycle;Max_cycle;Signal;HPM_P1;HPM_P2
2023/04/20 00:01:19;;;;;;;2.27;1.63;;;9.40;67.70;;;;;;5105740;27;20445;-75
2023/04/20 00:03:46;;;;;;;18.60;2.77;;;9.40;67.30;;;;;;5102810;27;20659;-72
2023/04/20 00:06:14;;;;;;;6.30;3.00;;;9.30;67.20;;;;;;5106703;27;20526;-75
2023/04/20 00:08:42;;;;;;;3.87;1.70;;;9.50;67.40;;;;;;5094970;27;21044;-75
2023/04/20 00:11:09;;;;;;;3.60;2.60;;;9.50;67.10;;;;;;5084681;28;20491;-75
2023/04/20 00:13:36;;;;;;;3.57;2.13;;;9.60;66.90;;;;;;5100976;27;20487;-74
2023/04/20 00:16:04;;;;;;;6.13;3.23;;;9.50;66.70;;;;;;5103836;27;20492;-74
2023/04/20 00:18:31;;;;;;;4.03;2.73;;;9.40;67.10;;;;;;5097722;27;21065;-74
2023/04/20 00:20:58;;;;;;;2.47;2.07;;;9.50;67.70;;;;;;5097135;27;20458;-75
2023/04/20 00:23:26;;;;;;;6.10;2.20;;;9.40;67.30;;;;;;5106438;27;20464;-74
2023/04/20 00:25:54;;;;;;;2.57;2.37;;;9.40;68.10;;;;;;5103977;28;20456;-73
2023/04/20 00:28:21;;;;;;;4.30;2.50;;;9.40;67.50;;;;;;5102114;28;21174;-76
2023/04/20 00:30:51;;;;;;;3.37;1.90;;;9.40;67.40;;;;;;5109313;27;20490;-75
2023/04/20 00:33:17;;;;;;;2.10;1.90;;;9.30;68.10;;;;;;5114650;28;20562;-75
2023/04/20 00:35:45;;;;;;;2.60;2.40;;;9.30;68.10;;;;;;5116043;27;20966;-74
2023/04/20 00:38:13;;;;;;;3.73;2.40;;;9.20;68.20;;;;;;5094010;27;21039;-74
2023/04/20 00:40:43;;;;;;;3.50;2.13;;;9.20;68.30;;;;;;5096481;27;20458;-74
2023/04/20 00:43:11;;;;;;;4.93;2.37;;;9.10;68.20;;;;;;5104489;27;20549;-74
2023/04/20 00:45:38;;;;;;;6.80;3.27;;;9.00;69.00;;;;;;5099663;27;20920;-74
2023/04/20 00:48:06;;;;;;;1.90;1.70;;;8.90;69.80;;;;;;5093759;27;20453;-72
2023/04/20 00:50:34;;;;;;;5.33;2.70;;;8.90;69.70;;;;;;5094407;28;20469;-75
2023/04/20 00:53:02;;;;;;;4.17;1.93;;;8.70;70.10;;;;;;5104418;27;20848;-74
2023/04/20 00:55:30;;;;;;;4.10;2.30;;;8.60;70.90;;;;;;5120601;27;20413;-75
2023/04/20 00:57:59;;;;;;;3.83;1.70;;;8.60;71.30;;;;;;5118988;28;21930;-71
2023/04/20 01:00:30;;;;;;;2.70;1.70;;;8.70;70.80;;;;;;5113440;27;20415;-72
2023/04/20 01:02:58;;;;;;;2.10;1.63;;;8.70;71.00;;;;;;5124827;27;20476;-75
2023/04/20 01:05:25;;;;;;;2.70;2.30;;;8.60;70.80;;;;;;5110685;27;20446;-74
2023/04/20 01:07:52;;;;;;;2.63;2.30;;;8.60;71.10;;;;;;5083041;27;20456;-74
2023/04/20 01:10:22;;;;;;;2.67;2.30;;;8.70;71.30;;;;;;5100303;27;20943;-75
2023/04/20 01:12:49;;;;;;;3.80;2.13;;;8.70;72.80;;;;;;5102425;27;20519;-74
2023/04/20 01:15:17;;;;;;;3.60;2.23;;;8.80;71.60;;;;;;5102413;27;20548;-75
2023/04/20 01:17:45;;;;;;;2.83;2.00;;;8.90;71.20;;;;;;5055512;27;20464;-73
2023/04/20 01:20:13;;;;;;;2.53;2.20;;;8.70;71.60;;;;;;5100145;27;20431;-75
2023/04/20 01:22:46;;;;;;;3.40;2.00;;;8.70;71.70;;;;;;5099938;27;20488;-73
2023/04/20 01:25:14;;;;;;;3.50;1.90;;;8.70;72.10;;;;;;5092328;28;20510;-75
2023/04/20 01:27:42;;;;;;;2.57;1.60;;;8.90;71.70;;;;;;5099777;28;20432;-74
2023/04/20 01:30:11;;;;;;;4.87;1.87;;;8.90;72.20;;;;;;5106810;27;20481;-75
2023/04/20 01:32:39;;;;;;;1.50;1.40;;;9.10;71.90;;;;;;5105260;27;20483;-74
2023/04/20 01:35:08;;;;;;;2.47;1.97;;;9.20;72.10;;;;;;5095771;27;21761;-74
2023/04/20 01:37:37;;;;;;;3.20;2.07;;;9.10;72.30;;;;;;5100109;28;20514;-74
2023/04/20 01:40:09;;;;;;;1.90;1.60;;;9.10;72.90;;;;;;5090354;27;20460;-71
2023/04/20 01:42:36;;;;;;;2.10;1.33;;;9.20;73.90;;;;;;5091048;28;20461;-73
2023/04/20 01:45:04;;;;;;;2.23;1.80;;;9.20;74.10;;;;;;5092641;28;20989;-73
2023/04/20 01:47:32;;;;;;;4.33;2.40;;;9.10;74.60;;;;;;5094974;28;20874;-75
2023/04/20 01:49:59;;;;;;;2.70;2.50;;;9.10;75.60;;;;;;5093651;27;20428;-73
2023/04/20 01:52:26;;;;;;;7.83;2.70;;;9.10;76.00;;;;;;5094210;27;20573;-74
2023/04/20 01:54:55;;;;;;;4.27;2.07;;;9.10;76.50;;;;;;5096602;28;20483;-74
2023/04/20 01:57:23;;;;;;;3.43;2.50;;;9.20;77.30;;;;;;5098073;28;20444;-75
2023/04/20 01:59:50;;;;;;;2.20;1.97;;;9.10;77.10;;;;;;5102489;27;20538;-74
2023/04/20 02:02:20;;;;;;;12.37;3.53;;;9.20;77.20;;;;;;5100026;27;20456;-74
2023/04/20 02:04:47;;;;;;;2.23;1.80;;;9.40;77.30;;;;;;5061390;28;20477;-74
2023/04/20 02:07:14;;;;;;;2.97;2.70;;;9.40;77.10;;;;;;5068650;28;20501;-74
2023/04/20 02:09:41;;;;;;;3.23;2.20;;;9.30;78.00;;;;;;5094961;27;20456;-75
2023/04/20 02:12:09;;;;;;;5.63;1.63;;;9.20;78.80;;;;;;5105376;28;20444;-74
2023/04/20 02:14:38;;;;;;;2.57;2.20;;;9.10;80.30;;;;;;5114824;27;20501;-75
2023/04/20 02:17:06;;;;;;;3.53;2.37;;;9.10;83.40;;;;;;5095812;28;20488;-75
2023/04/20 02:19:36;;;;;;;4.97;1.93;;;9.00;85.30;;;;;;5091446;27;20453;-74
2023/04/20 02:22:03;;;;;;;4.27;1.60;;;9.10;87.90;;;;;;5102405;28;20459;-75
2023/04/20 02:24:30;;;;;;;3.93;2.20;;;9.00;89.00;;;;;;5099969;28;21281;-75
2023/04/20 02:26:57;;;;;;;1.93;1.70;;;8.90;90.50;;;;;;5112010;28;20440;-71
2023/04/20 02:29:25;;;;;;;6.50;1.93;;;9.00;90.90;;;;;;5111310;27;20506;-75
2023/04/20 02:31:54;;;;;;;4.80;1.67;;;8.90;91.60;;;;;;5107476;27;20556;-74
2023/04/20 02:34:21;;;;;;;2.67;1.90;;;8.90;93.00;;;;;;5098516;28;20481;-74
2023/04/20 02:36:48;;;;;;;3.60;1.93;;;8.80;93.80;;;;;;5099921;27;20457;-74
2023/04/20 02:39:16;;;;;;;4.90;1.93;;;9.00;94.50;;;;;;5097947;28;20454;-74
2023/04/20 02:41:43;;;;;;;3.23;3.03;;;8.90;95.50;;;;;;5110700;28;20461;-72
2023/04/20 02:44:10;;;;;;;4.60;2.90;;;9.00;96.60;;;;;;5116213;28;20463;-74
2023/04/20 02:46:37;;;;;;;2.43;1.90;;;9.00;97.30;;;;;;5093768;28;20843;-74
2023/04/20 02:49:08;;;;;;;5.80;2.80;;;8.90;98.30;;;;;;5079960;28;20459;-74
2023/04/20 02:51:35;;;;;;;3.70;2.90;;;8.90;99.50;;;;;;5076323;28;20465;-75
2023/04/20 02:54:02;;;;;;;4.33;2.93;;;9.00;99.90;;;;;;5070964;28;20597;-75
2023/04/20 02:56:29;;;;;;;5.10;3.53;;;9.00;99.90;;;;;;5082585;28;20428;-74
2023/04/20 02:58:56;;;;;;;3.50;2.10;;;9.00;99.90;;;;;;5040446;28;20497;-74
2023/04/20 03:01:23;;;;;;;2.17;1.77;;;8.90;99.90;;;;;;5078561;28;20490;-74
2023/04/20 03:03:50;;;;;;;2.23;1.90;;;8.80;99.90;;;;;;5073394;28;20478;-74
2023/04/20 03:06:19;;;;;;;3.20;1.87;;;8.60;99.90;;;;;;5079701;28;20629;-73
2023/04/20 03:08:49;;;;;;;2.70;2.10;;;8.70;99.90;;;;;;5077245;28;20500;-71
2023/04/20 03:11:20;;;;;;;3.10;2.10;;;8.70;99.90;;;;;;5075173;28;20486;-75
2023/04/20 03:13:47;;;;;;;3.47;2.40;;;8.70;99.90;;;;;;5082889;28;20477;-75
2023/04/20 03:16:14;;;;;;;2.50;2.23;;;8.70;99.90;;;;;;5074771;28;20440;-75
2023/04/20 03:18:43;;;;;;;8.73;3.07;;;8.60;99.90;;;;;;5084101;28;20457;-75
2023/04/20 03:21:13;;;;;;;1.43;1.20;;;8.70;99.90;;;;;;5077617;28;20577;-73
2023/04/20 03:23:42;;;;;;;3.30;2.20;;;8.70;99.90;;;;;;5088164;28;20470;-75
2023/04/20 03:26:09;;;;;;;12.20;2.50;;;8.70;99.90;;;;;;5090648;28;20505;-75
2023/04/20 03:28:36;;;;;;;3.83;2.57;;;8.70;99.90;;;;;;5084548;28;20520;-75
2023/04/20 03:31:05;;;;;;;3.73;2.57;;;8.70;99.90;;;;;;5076842;28;20548;-75
2023/04/20 03:33:32;;;;;;;7.97;2.20;;;8.70;99.90;;;;;;5043738;28;20474;-74
2023/04/20 03:35:59;;;;;;;2.20;1.97;;;8.70;99.90;;;;;;5047733;28;20425;-75
2023/04/20 03:38:26;;;;;;;3.80;3.10;;;8.60;99.90;;;;;;5089191;28;20690;-75
2023/04/20 03:40:55;;;;;;;1.90;1.70;;;8.40;99.90;;;;;;5074809;28;21012;-74
2023/04/20 03:43:22;;;;;;;2.80;2.50;;;8.40;99.90;;;;;;5078405;28;21058;-75
2023/04/20 03:45:49;;;;;;;3.80;3.00;;;8.50;99.90;;;;;;5070780;28;20848;-74
2023/04/20 03:48:16;;;;;;;4.80;3.27;;;8.50;99.90;;;;;;5079355;28;20529;-75
2023/04/20 03:50:43;;;;;;;1.57;1.40;;;8.50;99.90;;;;;;5067462;28;20509;-75
2023/04/20 03:53:11;;;;;;;7.20;2.37;;;8.40;99.90;;;;;;5081845;28;20569;-76
2023/04/20 03:55:37;;;;;;;2.93;2.03;;;8.50;99.90;;;;;;5072983;28;20585;-75
2023/04/20 03:58:08;;;;;;;3.17;2.17;;;8.50;99.90;;;;;;5074749;28;20486;-75
2023/04/20 04:00:35;;;;;;;2.63;1.87;;;8.40;99.90;;;;;;5079728;28;20469;-75
2023/04/20 04:03:04;;;;;;;1.77;1.20;;;8.30;99.90;;;;;;5076523;28;21052;-75
2023/04/20 04:05:31;;;;;;;2.17;1.97;;;8.30;99.90;;;;;;5076326;28;20425;-74
2023/04/20 04:07:58;;;;;;;4.37;3.10;;;8.40;99.90;;;;;;5073261;28;20858;-74
2023/04/20 04:10:28;;;;;;;6.53;3.93;;;8.30;99.90;;;;;;5083528;28;20548;-74
2023/04/20 04:12:55;;;;;;;5.00;2.50;;;8.30;99.90;;;;;;5080629;28;20575;-75
2023/04/20 04:15:25;;;;;;;4.13;2.40;;;8.40;99.90;;;;;;5074345;28;20619;-75
2023/04/20 04:17:54;;;;;;;3.73;2.63;;;8.40;99.90;;;;;;5078467;28;20470;-74
2023/04/20 04:20:24;;;;;;;3.20;1.87;;;8.40;99.90;;;;;;5091069;28;20492;-70
2023/04/20 04:22:51;;;;;;;2.43;1.80;;;8.40;99.90;;;;;;5079383;28;21551;-74
2023/04/20 04:25:19;;;;;;;2.67;2.10;;;8.30;99.90;;;;;;5079122;28;20455;-75
2023/04/20 04:27:49;;;;;;;3.50;2.63;;;8.20;99.90;;;;;;5075844;28;20537;-75
2023/04/20 04:30:21;;;;;;;3.80;3.10;;;8.30;99.90;;;;;;5052664;28;20458;-76
2023/04/20 04:32:50;;;;;;;3.63;2.67;;;8.40;99.90;;;;;;4978826;28;20554;-75
2023/04/20 04:35:17;;;;;;;3.73;2.00;;;8.40;99.90;;;;;;5051034;28;20472;-74
2023/04/20 04:37:44;;;;;;;3.93;2.17;;;8.30;99.90;;;;;;5060118;28;21032;-75
2023/04/20 04:40:12;;;;;;;3.30;2.10;;;8.10;99.90;;;;;;5057932;28;20437;-75
2023/04/20 04:42:47;;;;;;;2.67;2.37;;;8.10;99.90;;;;;;5058242;28;20512;-75
2023/04/20 04:45:15;;;;;;;2.60;2.30;;;8.30;99.90;;;;;;5055318;28;20972;-75
2023/04/20 04:47:47;;;;;;;3.20;2.20;;;8.40;99.90;;;;;;5049073;28;21110;-75
2023/04/20 04:50:16;;;;;;;3.97;2.20;;;8.60;99.90;;;;;;5067475;28;20449;-74
2023/04/20 04:52:43;;;;;;;3.57;1.60;;;8.60;99.90;;;;;;5074278;28;20479;-73
2023/04/20 04:55:10;;;;;;;2.67;2.47;;;8.50;99.90;;;;;;5069892;28;20452;-74
2023/04/20 04:57:40;;;;;;;4.27;2.40;;;8.40;99.90;;;;;;5074896;28;20446;-73
2023/04/20 05:00:11;;;;;;;10.93;2.43;;;8.40;99.90;;;;;;5080217;28;20461;-74
2023/04/20 05:02:38;;;;;;;5.13;2.30;;;8.40;99.90;;;;;;5077081;28;20855;-75
2023/04/20 05:05:05;;;;;;;7.60;2.90;;;8.40;99.90;;;;;;5078099;28;20482;-74
2023/04/20 05:07:34;;;;;;;2.83;2.13;;;8.40;99.90;;;;;;5039999;28;20585;-73
2023/04/20 05:10:01;;;;;;;3.90;2.47;;;8.40;99.90;;;;;;5071786;28;20585;-75
2023/04/20 05:12:29;;;;;;;4.20;2.17;;;8.30;99.90;;;;;;5075288;28;20444;-75
2023/04/20 05:14:56;;;;;;;2.00;1.80;;;8.20;99.90;;;;;;5073807;28;20485;-74
2023/04/20 05:17:23;;;;;;;2.83;2.07;;;8.10;99.90;;;;;;5088214;28;20449;-72
2023/04/20 05:19:50;;;;;;;8.63;2.80;;;8.10;99.90;;;;;;5077251;28;20585;-75
2023/04/20 05:22:19;;;;;;;2.87;2.67;;;8.10;99.90;;;;;;5073881;28;20512;-75
2023/04/20 05:24:48;;;;;;;3.17;2.40;;;8.00;99.90;;;;;;5070320;28;20514;-75
2023/04/20 05:27:26;;;;;;;6.50;3.17;;;8.10;99.90;;;;;;5079788;28;21031;-75
2023/04/20 05:29:54;;;;;;;3.30;2.00;;;8.20;99.90;;;;;;5078984;28;21770;-70
2023/04/20 05:32:26;;;;;;;15.20;9.13;;;8.20;99.90;;;;;;5091851;28;20538;-70
2023/04/20 05:34:53;;;;;;;4.90;3.07;;;8.10;99.90;;;;;;5063797;28;20478;-70
2023/04/20 05:37:20;;;;;;;5.77;2.63;;;8.00;99.90;;;;;;5071597;28;20464;-74
2023/04/20 05:39:49;;;;;;;2.23;2.03;;;8.10;99.90;;;;;;5069458;28;21679;-75
2023/04/20 05:42:16;;;;;;;4.90;2.40;;;8.00;99.90;;;;;;5077804;28;20554;-75
2023/04/20 05:44:47;;;;;;;2.30;2.10;;;8.00;99.90;;;;;;5067134;28;20425;-75
2023/04/20 05:47:14;;;;;;;2.90;1.97;;;7.90;99.90;;;;;;5068174;28;20456;-71
2023/04/20 05:49:46;;;;;;;3.80;3.40;;;7.80;99.90;;;;;;5089485;28;20454;-76
2023/04/20 05:52:13;;;;;;;2.27;1.63;;;7.70;99.90;;;;;;5075878;28;20462;-76
2023/04/20 05:54:40;;;;;;;1.47;1.10;;;7.50;99.90;;;;;;5079052;28;20597;-73
2023/04/20 05:57:09;;;;;;;2.93;2.63;;;7.40;99.90;;;;;;5078154;28;20454;-73
2023/04/20 05:59:36;;;;;;;2.67;1.73;;;7.40;99.90;;;;;;5082441;28;20446;-74
2023/04/20 06:02:06;;;;;;;2.20;1.90;;;7.30;99.90;;;;;;5083497;28;20484;-73
2023/04/20 06:04:33;;;;;;;6.80;2.90;;;7.50;99.90;;;;;;5074785;28;20441;-73
2023/04/20 06:07:00;;;;;;;2.63;2.20;;;7.30;99.90;;;;;;5080699;28;20429;-74
2023/04/20 06:09:27;;;;;;;3.23;1.80;;;7.50;99.90;;;;;;5083841;28;20478;-73
2023/04/20 06:11:54;;;;;;;11.80;2.90;;;7.50;99.90;;;;;;5077610;28;20512;-74
2023/04/20 06:14:24;;;;;;;3.00;2.13;;;7.40;99.90;;;;;;5054651;28;20466;-72
2023/04/20 06:16:51;;;;;;;3.90;2.40;;;7.50;99.90;;;;;;5082776;28;20453;-74
2023/04/20 06:19:19;;;;;;;2.93;2.23;;;7.50;99.90;;;;;;5070829;28;20458;-74
2023/04/20 06:21:49;;;;;;;2.17;1.83;;;7.50;99.90;;;;;;5082856;28;20530;-75
2023/04/20 06:24:18;;;;;;;4.27;2.57;;;7.40;99.90;;;;;;5079995;28;20475;-74
2023/04/20 06:26:46;;;;;;;5.20;2.80;;;7.40;99.90;;;;;;5075250;28;20977;-76
2023/04/20 06:29:13;;;;;;;4.43;2.87;;;7.60;99.90;;;;;;5073353;28;20516;-74
2023/04/20 06:31:42;;;;;;;4.50;2.90;;;7.50;99.90;;;;;;5085981;28;20421;-74
2023/04/20 06:34:13;;;;;;;3.40;2.83;;;7.50;99.90;;;;;;5084234;28;20466;-74
2023/04/20 06:36:42;;;;;;;4.57;3.53;;;7.40;99.90;;;;;;5072604;28;20913;-74
2023/04/20 06:39:17;;;;;;;5.80;3.80;;;7.20;99.90;;;;;;5075370;28;20454;-74
2023/04/20 06:41:45;;;;;;;5.07;3.00;;;7.30;99.90;;;;;;5079610;28;20520;-74
2023/04/20 06:44:15;;;;;;;4.03;3.03;;;7.30;99.90;;;;;;5099353;28;20507;-73
2023/04/20 06:46:44;;;;;;;1.90;1.70;;;7.40;99.90;;;;;;5077305;28;21207;-74
2023/04/20 06:49:11;;;;;;;2.60;2.40;;;7.50;99.90;;;;;;5077371;28;20468;-74
2023/04/20 06:51:39;;;;;;;4.33;2.73;;;7.50;99.90;;;;;;5043831;28;20987;-74
2023/04/20 06:54:09;;;;;;;3.10;2.80;;;7.60;99.90;;;;;;5076410;28;20540;-75
2023/04/20 06:56:37;;;;;;;3.07;2.40;;;7.80;99.90;;;;;;5082022;28;20459;-75
2023/04/20 06:59:10;;;;;;;2.17;1.87;;;7.80;99.90;;;;;;5087918;28;20530;-75
2023/04/20 07:01:37;;;;;;;4.10;2.67;;;7.90;99.90;;;;;;5083548;28;20428;-74
2023/04/20 07:04:10;;;;;;;3.27;2.83;;;7.80;99.90;;;;;;5075095;28;20600;-75
2023/04/20 07:06:37;;;;;;;2.17;1.93;;;8.10;99.90;;;;;;5081471;28;20451;-75
2023/04/20 07:09:13;;;;;;;2.93;2.73;;;8.10;99.90;;;;;;5076779;28;20451;-75
2023/04/20 07:11:40;;;;;;;2.87;2.57;;;8.10;99.90;;;;;;5088138;28;20431;-73
2023/04/20 07:14:08;;;;;;;2.97;2.73;;;8.00;99.90;;;;;;5079155;28;20750;-76
2023/04/20 07:16:35;;;;;;;3.90;2.50;;;8.00;99.90;;;;;;5076168;28;20481;-75
2023/04/20 07:19:03;;;;;;;5.17;2.90;;;8.10;99.90;;;;;;5072134;28;20466;-75
2023/04/20 07:21:45;;;;;;;5.60;3.30;;;8.20;99.90;;;;;;5079666;28;20445;-75
2023/04/20 07:24:43;;;;;;;10.20;3.10;;;8.10;99.90;;;;;;5244858;22;20839;-76
2023/04/20 07:27:23;;;;;;;6.40;3.33;;;8.40;99.90;;;;;;5068364;28;20545;-76
2023/04/20 07:30:07;;;;;;;3.13;2.10;;;8.40;99.90;;;;;;5078029;28;20442;-75
2023/04/20 07:32:36;;;;;;;5.90;3.33;;;8.60;99.90;;;;;;5071013;28;20490;-75
2023/04/20 07:35:08;;;;;;;3.53;3.13;;;8.50;99.90;;;;;;5049745;28;20504;-76
2023/04/20 07:37:38;;;;;;;5.50;2.97;;;8.50;99.90;;;;;;5043971;28;20990;-75
2023/04/20 07:40:09;;;;;;;3.83;2.90;;;8.50;99.90;;;;;;5039777;28;20955;-75
2023/04/20 07:42:37;;;;;;;4.30;3.40;;;8.60;99.90;;;;;;5001311;28;20503;-75
2023/04/20 07:45:09;;;;;;;4.47;2.83;;;8.50;99.90;;;;;;5045311;28;20613;-74
2023/04/20 07:47:36;;;;;;;5.90;2.47;;;8.70;99.90;;;;;;5043692;28;20495;-73
2023/04/20 07:50:04;;;;;;;9.63;4.47;;;8.80;99.90;;;;;;5009857;28;20462;-74
2023/04/20 07:55:53;;;;;;;6.90;3.10;;;8.70;99.90;;;;;;5063351;28;20510;-73
2023/04/20 07:58:47;;;;;;;8.33;3.70;;;8.50;99.90;;;;;;5041242;28;20459;-75
2023/04/20 08:01:14;;;;;;;4.20;2.90;;;8.50;99.90;;;;;;5049764;28;20471;-75
2023/04/20 08:03:59;;;;;;;5.17;3.80;;;8.70;99.90;;;;;;5043861;28;20846;-75
2023/04/20 08:06:33;;;;;;;3.33;2.20;;;8.60;99.90;;;;;;5035403;28;20547;-75
2023/04/20 08:09:07;;;;;;;3.17;2.60;;;8.70;99.90;;;;;;5061088;28;20446;-75
2023/04/20 08:12:01;;;;;;;6.43;3.60;;;8.60;99.90;;;;;;5041738;28;20547;-75
2023/04/20 08:15:10;;;;;;;3.53;3.13;;;8.60;99.90;;;;;;5002189;28;20458;-75
2023/04/20 08:17:51;;;;;;;4.00;2.50;;;8.70;99.90;;;;;;5049022;28;21230;-74
2023/04/20 08:20:21;;;;;;;5.27;3.30;;;8.60;99.90;;;;;;5045415;28;20462;-75
2023/04/20 08:22:51;;;;;;;8.33;4.07;;;8.60;99.90;;;;;;5047856;28;21139;-74
2023/04/20 08:25:18;;;;;;;5.80;3.67;;;8.40;99.90;;;;;;5037536;28;20467;-74
2023/04/20 08:27:49;;;;;;;5.03;3.50;;;8.40;99.90;;;;;;5045551;28;20487;-74
2023/04/20 08:30:16;;;;;;;4.40;2.80;;;8.60;99.90;;;;;;5035315;28;20459;-73
2023/04/20 08:32:45;;;;;;;6.00;3.33;;;8.80;99.90;;;;;;5041433;28;20591;-74
2023/04/20 08:35:12;;;;;;;4.20;3.27;;;8.50;99.90;;;;;;5009655;28;20872;-74
2023/04/20 08:37:41;;;;;;;4.50;3.77;;;8.40;99.90;;;;;;5048938;28;20855;-74
2023/04/20 08:40:15;;;;;;;3.03;2.37;;;8.50;99.90;;;;;;5050070;28;20463;-74
2023/04/20 08:42:44;;;;;;;6.40;3.20;;;8.50;99.90;;;;;;5043543;28;20471;-75
2023/04/20 08:45:13;;;;;;;4.27;3.40;;;8.40;99.90;;;;;;5042329;28;20470;-74
2023/04/20 08:47:43;;;;;;;5.70;2.87;;;8.20;99.90;;;;;;5043861;28;20870;-72
2023/04/20 08:50:11;;;;;;;2.70;2.47;;;8.10;99.90;;;;;;5049372;28;20419;-73
2023/04/20 08:52:38;;;;;;;6.80;3.10;;;8.20;99.90;;;;;;5043242;28;20519;-75
2023/04/20 08:55:07;;;;;;;6.90;3.77;;;8.20;99.90;;;;;;4986594;28;21067;-73
2023/04/20 08:57:35;;;;;;;5.47;2.50;;;8.40;99.90;;;;;;5038694;28;20466;-71
2023/04/20 09:00:07;;;;;;;6.47;3.30;;;8.20;99.90;;;;;;5037366;28;20464;-71
2023/04/20 09:02:49;;;;;;;3.53;3.00;;;8.10;99.90;;;;;;5026058;28;20451;-74
2023/04/20 09:05:25;;;;;;;4.90;3.17;;;8.20;99.90;;;;;;5061080;28;21118;-71
2023/04/20 09:07:57;;;;;;;6.93;4.60;;;8.00;99.90;;;;;;5050073;28;20455;-72
2023/04/20 09:10:25;;;;;;;9.07;4.20;;;8.00;99.90;;;;;;5051773;28;20452;-73
2023/04/20 09:13:02;;;;;;;3.30;2.27;;;8.00;99.90;;;;;;5027013;28;20983;-74
2023/04/20 09:15:30;;;;;;;2.50;2.30;;;8.00;99.90;;;;;;5043032;28;20479;-73
2023/04/20 09:17:59;;;;;;;4.07;2.17;;;8.10;99.90;;;;;;5044546;28;20453;-74
2023/04/20 09:20:32;;;;;;;8.33;3.13;;;8.80;99.90;;;;;;5041147;28;20749;-72
2023/04/20 09:23:12;;;;;;;3.33;1.87;;;9.10;99.90;;;;;;5045078;28;21082;-74
2023/04/20 09:25:42;;;;;;;2.60;1.87;;;9.40;99.90;;;;;;5046799;28;20446;-71
2023/04/20 09:28:10;;;;;;;3.63;2.43;;;9.30;99.90;;;;;;5034104;28;20452;-74
2023/04/20 09:30:38;;;;;;;2.03;1.83;;;9.30;99.90;;;;;;5043745;28;20446;-74
2023/04/20 09:33:09;;;;;;;2.93;2.03;;;9.70;99.90;;;;;;5033685;28;20499;-72
2023/04/20 09:35:38;;;;;;;4.73;2.43;;;9.70;99.90;;;;;;5036754;28;20549;-74
2023/04/20 09:38:06;;;;;;;3.10;1.73;;;9.60;99.90;;;;;;5035504;28;20451;-75
2023/04/20 09:40:34;;;;;;;2.17;1.40;;;9.80;99.90;;;;;;5039086;28;21117;-74
2023/04/20 09:43:06;;;;;;;4.40;2.67;;;10.10;99.90;;;;;;5044345;28;20483;-74
2023/04/20 09:45:34;;;;;;;10.43;2.70;;;10.20;99.90;;;;;;5045349;28;20518;-74
2023/04/20 09:48:04;;;;;;;7.20;2.47;;;10.30;99.90;;;;;;5039835;28;20479;-74
2023/04/20 09:50:35;;;;;;;4.77;3.70;;;10.80;99.90;;;;;;5041197;28;20459;-75
2023/04/20 09:53:03;;;;;;;5.07;3.20;;;10.90;99.90;;;;;;5011392;28;20507;-74
2023/04/20 09:55:31;;;;;;;5.27;2.67;;;10.90;99.90;;;;;;5041599;28;20459;-74
2023/04/20 09:58:02;;;;;;;4.00;3.10;;;10.90;99.90;;;;;;5044486;28;20539;-74
2023/04/20 10:00:30;;;;;;;5.10;3.73;;;11.10;99.90;;;;;;5044376;28;20561;-72
2023/04/20 10:03:09;;;;;;;6.07;3.40;;;12.00;99.90;;;;;;5051683;28;20500;-74
2023/04/20 10:05:40;;;;;;;4.73;3.20;;;12.70;99.90;;;;;;5034076;28;21051;-75
2023/04/20 10:08:10;;;;;;;4.33;2.33;;;12.80;99.90;;;;;;5042219;28;20530;-75
2023/04/20 10:10:56;;;;;;;4.27;3.50;;;12.00;99.90;;;;;;5058391;28;20444;-75
2023/04/20 10:13:34;;;;;;;5.33;4.33;;;11.00;99.90;;;;;;5036864;28;20482;-74
2023/04/20 10:16:03;;;;;;;3.93;2.83;;;10.90;99.90;;;;;;5042059;28;20479;-74
2023/04/20 10:18:32;;;;;;;4.07;3.67;;;10.70;99.90;;;;;;5042744;28;20838;-74
2023/04/20 10:21:09;;;;;;;3.07;2.70;;;10.70;99.90;;;;;;5041737;28;20463;-75
2023/04/20 10:23:47;;;;;;;3.63;2.90;;;10.20;99.90;;;;;;5041116;28;20491;-74
2023/04/20 10:26:15;;;;;;;3.80;3.00;;;10.10;99.90;;;;;;5047846;28;20619;-73
2023/04/20 10:28:45;;;;;;;3.70;3.40;;;10.20;99.90;;;;;;5023675;28;20459;-74
2023/04/20 10:31:14;;;;;;;2.20;2.10;;;10.50;99.90;;;;;;5050023;28;20463;-73
2023/04/20 10:33:51;;;;;;;3.90;2.83;;;10.90;99.90;;;;;;5041106;28;20480;-74
2023/04/20 10:36:35;;;;;;;2.07;1.87;;;12.40;99.90;;;;;;5040707;28;20873;-74
2023/04/20 10:39:16;;;;;;;2.70;2.13;;;12.80;99.90;;;;;;5043582;28;20460;-76
2023/04/20 10:41:53;;;;;;;5.13;3.17;;;12.10;99.90;;;;;;5055284;28;20483;-75
2023/04/20 10:44:22;;;;;;;2.20;2.00;;;11.50;99.90;;;;;;5051883;28;20505;-75
2023/04/20 10:46:56;;;;;;;2.50;2.03;;;11.10;99.90;;;;;;5040260;28;20448;-71
2023/04/20 10:49:27;;;;;;;2.50;2.23;;;10.80;99.90;;;;;;5041277;28;20526;-75
2023/04/20 10:52:07;;;;;;;6.10;4.97;;;10.50;99.90;;;;;;5037555;28;20459;-71
2023/04/20 10:54:38;;;;;;;3.30;2.80;;;10.40;99.90;;;;;;5034399;28;20584;-75
2023/04/20 10:57:06;;;;;;;2.60;1.97;;;10.40;99.90;;;;;;5045424;28;20483;-75
2023/04/20 10:59:36;;;;;;;5.97;3.23;;;10.60;99.90;;;;;;5042237;28;20825;-71
2023/04/20 11:02:09;;;;;;;4.13;2.23;;;10.40;99.90;;;;;;5044542;28;20464;-75
2023/04/20 11:04:36;;;;;;;3.73;1.87;;;10.40;99.90;;;;;;5034823;28;20463;-75
2023/04/20 11:07:09;;;;;;;3.20;2.07;;;10.80;99.90;;;;;;5039694;28;20463;-75
2023/04/20 11:09:41;;;;;;;2.70;2.03;;;11.40;99.90;;;;;;5034467;28;20470;-75
2023/04/20 11:12:13;;;;;;;7.40;4.33;;;11.90;99.90;;;;;;5048057;28;20497;-75
2023/04/20 11:14:53;;;;;;;1.90;1.70;;;13.10;99.90;;;;;;5022752;28;20468;-75
2023/04/20 11:17:20;;;;;;;5.67;3.73;;;13.80;99.90;;;;;;5046093;28;20475;-75
2023/04/20 11:19:47;;;;;;;2.50;2.30;;;13.50;99.90;;;;;;5045612;28;20467;-75
2023/04/20 11:22:25;;;;;;;3.10;2.73;;;13.40;99.90;;;;;;5043380;28;20482;-76
2023/04/20 11:25:06;;;;;;;3.47;2.60;;;13.30;99.90;;;;;;5048249;28;20521;-76
2023/04/20 11:27:35;;;;;;;4.93;2.50;;;13.70;99.90;;;;;;5042562;28;20439;-75
2023/04/20 11:30:04;;;;;;;4.10;3.50;;;13.50;99.90;;;;;;5041523;28;20473;-75
2023/04/20 11:32:32;;;;;;;1.90;1.73;;;13.30;99.90;;;;;;5051656;28;20581;-75
2023/04/20 11:35:01;;;;;;;2.87;2.13;;;13.50;99.90;;;;;;5038102;28;20470;-74
2023/04/20 11:37:30;;;;;;;1.83;1.37;;;13.80;99.90;;;;;;5047133;28;20540;-76
2023/04/20 11:40:00;;;;;;;3.13;2.00;;;14.30;99.90;;;;;;5013523;28;20567;-76
2023/04/20 11:42:30;;;;;;;3.60;2.80;;;14.80;99.90;;;;;;5039542;28;20533;-75
2023/04/20 11:44:59;;;;;;;2.33;2.10;;;14.00;99.90;;;;;;5051960;28;20466;-72
2023/04/20 11:47:28;;;;;;;2.57;2.17;;;13.30;99.90;;;;;;5046611;28;20442;-77
2023/04/20 11:49:55;;;;;;;3.70;2.70;;;12.60;99.90;;;;;;5039702;28;21000;-73
2023/04/20 11:52:31;;;;;;;2.53;1.70;;;13.20;99.90;;;;;;5038192;28;20488;-75
2023/04/20 11:55:01;;;;;;;1.80;1.50;;;13.70;99.90;;;;;;5039602;28;20533;-75
2023/04/20 11:57:33;;;;;;;5.93;2.50;;;14.40;99.90;;;;;;5052707;28;20551;-73
2023/04/20 12:00:03;;;;;;;3.20;2.77;;;14.80;99.90;;;;;;5051672;28;20485;-75
2023/04/20 12:02:34;;;;;;;5.53;2.87;;;15.60;99.90;;;;;;5035977;28;20467;-74
2023/04/20 12:05:12;;;;;;;3.90;3.03;;;15.00;99.90;;;;;;5035254;28;20463;-75
2023/04/20 12:08:02;;;;;;;2.90;2.53;;;15.20;99.90;;;;;;5037889;28;20455;-74
2023/04/20 12:10:33;;;;;;;3.00;2.37;;;15.80;99.90;;;;;;5022894;28;20458;-76
2023/04/20 12:13:01;;;;;;;4.33;2.67;;;15.90;99.90;;;;;;5041655;28;20552;-76
2023/04/20 12:15:30;;;;;;;3.73;2.30;;;15.70;99.90;;;;;;5047706;28;20467;-75
2023/04/20 12:17:57;;;;;;;3.83;1.33;;;15.20;99.90;;;;;;5051447;28;20472;-72
2023/04/20 12:20:27;;;;;;;5.60;2.17;;;14.30;99.90;;;;;;5058098;28;20451;-74
2023/04/20 12:22:56;;;;;;;3.43;2.90;;;15.00;99.90;;;;;;5045279;28;20550;-75
2023/04/20 12:25:30;;;;;;;3.67;3.23;;;15.50;99.90;;;;;;5039505;28;20472;-75
2023/04/20 12:27:58;;;;;;;2.90;2.10;;;16.60;99.90;;;;;;5045788;28;20456;-74
2023/04/20 12:30:25;;;;;;;4.60;2.73;;;15.80;99.80;;;;;;5048971;28;20924;-74
2023/04/20 12:32:52;;;;;;;5.60;3.40;;;15.50;99.90;;;;;;5045738;28;20516;-75
2023/04/20 12:35:20;;;;;;;6.00;3.20;;;16.00;99.90;;;;;;5041324;28;21018;-74
2023/04/20 12:37:50;;;;;;;5.63;3.87;;;15.80;99.90;;;;;;5048086;28;20552;-74
2023/04/20 12:40:17;;;;;;;3.73;2.70;;;16.40;99.70;;;;;;5032174;28;20693;-73
2023/04/20 12:42:46;;;;;;;5.03;4.40;;;15.20;99.90;;;;;;5034803;28;20921;-76
2023/04/20 12:45:16;;;;;;;3.63;2.37;;;15.40;99.90;;;;;;5036904;28;20463;-77
2023/04/20 12:47:43;;;;;;;4.10;3.07;;;15.40;99.90;;;;;;5044028;28;20517;-75
2023/04/20 12:50:10;;;;;;;4.20;3.00;;;14.60;99.90;;;;;;5040902;28;20526;-75
2023/04/20 12:52:38;;;;;;;3.00;2.27;;;14.20;99.90;;;;;;5044584;28;20508;-75
2023/04/20 12:55:06;;;;;;;2.13;1.87;;;14.30;99.90;;;;;;5054574;28;20459;-72
2023/04/20 12:57:33;;;;;;;3.13;2.67;;;14.00;99.90;;;;;;5055076;28;20471;-74
2023/04/20 13:00:05;;;;;;;4.90;3.80;;;13.70;99.90;;;;;;5053016;28;20459;-75
2023/04/20 13:02:33;;;;;;;3.33;2.67;;;13.90;99.90;;;;;;5044059;28;20483;-75
2023/04/20 13:05:00;;;;;;;4.90;3.83;;;13.80;99.90;;;;;;5043962;28;20549;-75
2023/04/20 13:07:28;;;;;;;2.40;2.13;;;13.50;99.90;;;;;;5048322;28;20474;-76
2023/04/20 13:09:58;;;;;;;5.17;4.10;;;13.40;99.90;;;;;;5031364;28;20462;-75